Time;durP1;ratioP1;P1;durP2;ratioP2;P2;SDS_P1;SDS_P2;PMS_P1;PMS_P2;Temp;Humidity;BMP_temperature;BMP_pressure;BME280_temperature;BME280_humidity;BME280_pressure;Samples;Min_cycle;Max_cycle;Signal;HPM_P1;HPM_P2
2022/03/25 00:00:48;;;;;;;20.30;9.05;;;;;;;0.66;100.00;101188.77;1755493;80;21657;-84
2022/03/25 00:03:17;;;;;;;19.52;11.68;;;;;;;0.70;100.00;101193.39;1740312;82;21069;-83
2022/03/25 00:05:45;;;;;;;21.82;9.73;;;;;;;0.68;100.00;101190.04;1740197;81;21301;-82
2022/03/25 00:08:13;;;;;;;18.52;10.40;;;;;;;0.62;100.00;101184.16;1717039;82;21235;-82
2022/03/25 00:10:42;;;;;;;19.48;9.88;;;;;;;0.61;100.00;101182.48;1759341;80;21058;-81
2022/03/25 00:13:10;;;;;;;16.97;9.45;;;;;;;0.65;100.00;101186.26;1739758;82;20998;-81
2022/03/25 00:15:39;;;;;;;18.30;9.93;;;;;;;0.67;100.00;101183.23;1757786;81;21456;-82
2022/03/25 00:18:08;;;;;;;27.48;11.03;;;;;;;0.63;100.00;101173.03;1752427;81;21061;-83
2022/03/25 00:20:40;;;;;;;20.60;10.40;;;;;;;0.58;100.00;101175.30;1731038;81;21106;-82
2022/03/25 00:23:11;;;;;;;25.77;11.80;;;;;;;0.49;100.00;101177.66;1743623;81;22246;-81
2022/03/25 00:25:43;;;;;;;23.80;11.63;;;;;;;0.35;100.00;101176.70;1769340;81;21097;-83
2022/03/25 00:28:16;;;;;;;18.25;9.75;;;;;;;0.15;100.00;101179.30;1768690;81;21395;-80
2022/03/25 00:30:54;;;;;;;24.85;10.08;;;;;;;0.03;100.00;101174.89;1767711;81;21062;-82
2022/03/25 00:33:23;;;;;;;16.77;9.38;;;;;;;-0.08;100.00;101180.25;1767609;81;21228;-83
2022/03/25 00:35:58;;;;;;;18.12;8.25;;;;;;;-0.19;100.00;101177.89;1768389;81;20999;-81
2022/03/25 00:38:35;;;;;;;12.07;8.13;;;;;;;-0.27;100.00;101174.23;1768744;81;20955;-82
2022/03/25 00:41:11;;;;;;;14.47;8.03;;;;;;;-0.34;100.00;101173.95;1743070;81;21023;-81
2022/03/25 00:43:45;;;;;;;13.70;8.20;;;;;;;-0.43;100.00;101180.09;1764910;81;21014;-83
2022/03/25 00:46:16;;;;;;;14.13;9.10;;;;;;;-0.53;100.00;101169.66;1769034;81;21045;-85
2022/03/25 00:48:46;;;;;;;15.15;9.25;;;;;;;-0.61;100.00;101176.19;1769035;81;21845;-82
2022/03/25 00:51:19;;;;;;;13.90;9.13;;;;;;;-0.65;100.00;101175.41;1768176;81;21318;-83
2022/03/25 00:53:58;;;;;;;14.78;8.70;;;;;;;-0.68;100.00;101167.78;1768655;81;21535;-81
2022/03/25 00:56:31;;;;;;;17.50;9.60;;;;;;;-0.69;100.00;101168.67;1768410;81;21500;-85
2022/03/25 00:59:01;;;;;;;15.78;8.23;;;;;;;-0.72;100.00;101167.44;1768114;81;20995;-82
2022/03/25 01:01:35;;;;;;;9.58;6.20;;;;;;;-0.77;100.00;101174.38;1768969;81;21657;-81
2022/03/25 01:04:11;;;;;;;12.07;6.20;;;;;;;-0.86;100.00;101172.81;1768669;81;20995;-82
2022/03/25 01:06:45;;;;;;;11.03;6.28;;;;;;;-0.94;100.00;101172.56;1767710;81;21919;-82
2022/03/25 01:09:16;;;;;;;11.48;5.97;;;;;;;-1.00;100.00;101178.17;1741775;78;21082;-81
2022/03/25 01:11:44;;;;;;;11.22;5.80;;;;;;;-1.05;100.00;101172.31;1796771;79;21044;-83
2022/03/25 01:14:13;;;;;;;10.93;6.05;;;;;;;-1.11;100.00;101177.53;1796318;79;21989;-82
2022/03/25 01:16:41;;;;;;;9.73;5.22;;;;;;;-1.20;100.00;101174.69;1758267;80;21072;-83
2022/03/25 01:19:10;;;;;;;34.20;7.05;;;;;;;-1.25;100.00;101176.94;1769583;80;21097;-82
2022/03/25 01:21:37;;;;;;;18.65;5.45;;;;;;;-1.30;100.00;101171.90;1758085;81;21021;-81
2022/03/25 01:24:06;;;;;;;15.13;5.20;;;;;;;-1.33;100.00;101171.94;1789715;78;21063;-86
2022/03/25 01:26:35;;;;;;;7.70;5.05;;;;;;;-1.37;100.00;101181.37;1769661;81;21281;-87
2022/03/25 01:29:04;;;;;;;10.72;5.30;;;;;;;-1.39;100.00;101183.09;1757924;80;21111;-83
2022/03/25 01:31:34;;;;;;;13.00;5.85;;;;;;;-1.40;100.00;101183.13;1769769;80;29117;-83
2022/03/25 01:34:03;;;;;;;8.43;5.83;;;;;;;-1.43;100.00;101175.92;1758153;81;20981;-81
2022/03/25 01:36:30;;;;;;;10.15;5.90;;;;;;;-1.45;100.00;101189.17;1769643;81;21030;-84
2022/03/25 01:39:02;;;;;;;13.18;5.97;;;;;;;-1.47;100.00;101188.34;1758088;80;21139;-82
2022/03/25 01:41:29;;;;;;;8.88;5.03;;;;;;;-1.47;100.00;101192.59;1770003;80;21062;-82
2022/03/25 01:44:01;;;;;;;27.15;6.90;;;;;;;-1.48;100.00;101189.63;1758214;80;21104;-82
2022/03/25 01:46:28;;;;;;;;;;;;;;;-1.49;100.00;101191.80;1793978;79;20957;-83
2022/03/25 01:48:56;;;;;;;8.88;4.78;;;;;;;-1.55;100.00;101195.70;1769388;81;20203;-82
2022/03/25 01:51:34;;;;;;;11.20;5.47;;;;;;;-1.61;100.00;101191.11;1758507;81;21202;-82
2022/03/25 01:54:10;;;;;;;7.80;5.28;;;;;;;-1.68;100.00;101193.34;1748130;81;21043;-82
2022/03/25 01:56:39;;;;;;;17.42;5.70;;;;;;;-1.70;100.00;101196.34;1755908;81;21001;-85
2022/03/25 01:59:09;;;;;;;16.32;4.87;;;;;;;-1.70;100.00;101195.07;1769887;81;21049;-85
2022/03/25 02:01:40;;;;;;;12.78;5.83;;;;;;;-1.68;100.00;101197.17;1758332;81;21044;-82
2022/03/25 02:04:08;;;;;;;12.70;5.35;;;;;;;-1.66;100.00;101198.00;1789317;79;21061;-82
2022/03/25 02:06:36;;;;;;;9.73;5.92;;;;;;;-1.66;100.00;101208.64;1769659;80;21078;-82
2022/03/25 02:09:04;;;;;;;11.18;5.50;;;;;;;-1.74;100.00;101203.66;1757837;80;20978;-81
2022/03/25 02:11:34;;;;;;;11.78;5.87;;;;;;;-1.83;100.00;101206.34;1789050;78;21028;-83
2022/03/25 02:14:03;;;;;;;11.65;5.42;;;;;;;-1.93;100.00;101202.63;1770630;80;21069;-82
2022/03/25 02:16:41;;;;;;;8.43;5.35;;;;;;;-1.95;100.00;101208.18;1815792;79;21057;-80
2022/03/25 02:19:12;;;;;;;17.57;5.75;;;;;;;-1.91;100.00;101213.67;1783672;79;21036;-83
2022/03/25 02:21:42;;;;;;;9.53;5.00;;;;;;;-1.87;100.00;101215.75;1801596;79;21018;-81
2022/03/25 02:24:12;;;;;;;16.80;5.80;;;;;;;-1.86;100.00;101219.13;1794985;79;21053;-82
2022/03/25 02:26:43;;;;;;;13.40;7.55;;;;;;;-1.91;100.00;101219.19;1800988;79;21128;-81
2022/03/25 02:29:16;;;;;;;17.32;7.33;;;;;;;-1.95;100.00;101218.84;1778406;80;21045;-84
2022/03/25 02:31:43;;;;;;;15.63;8.20;;;;;;;-1.97;100.00;101218.86;1782939;80;21063;-81
2022/03/25 02:34:12;;;;;;;15.43;7.62;;;;;;;-1.94;100.00;101218.80;1795291;78;21041;-82
2022/03/25 02:36:44;;;;;;;;;;;;;;;-1.95;100.00;101220.94;1820317;78;21444;-82
2022/03/25 02:39:14;;;;;;;15.48;7.12;;;;;;;-1.92;100.00;101222.61;1817431;78;20455;-84
2022/03/25 02:41:42;;;;;;;15.95;7.37;;;;;;;-1.90;100.00;101222.16;1817487;78;21067;-83
2022/03/25 02:44:11;;;;;;;13.88;7.22;;;;;;;-1.94;100.00;101225.63;1817160;78;21025;-82
2022/03/25 02:46:40;;;;;;;14.60;7.42;;;;;;;-2.03;100.00;101226.58;1817741;78;21017;-81
2022/03/25 02:49:09;;;;;;;16.17;7.30;;;;;;;-2.18;100.00;101228.91;1817263;78;21648;-83
2022/03/25 02:51:38;;;;;;;14.35;7.42;;;;;;;-2.32;100.00;101229.52;1817293;78;21041;-84
2022/03/25 02:54:05;;;;;;;17.75;8.98;;;;;;;-2.48;100.00;101229.66;1817504;78;21759;-85
2022/03/25 02:56:33;;;;;;;19.82;9.23;;;;;;;-2.57;100.00;101233.61;1817565;78;21096;-83
2022/03/25 02:59:00;;;;;;;30.85;9.85;;;;;;;-2.67;100.00;101232.84;1817414;78;21523;-83
2022/03/25 03:01:28;;;;;;;14.43;7.87;;;;;;;-2.75;100.00;101240.99;1817855;78;21053;-84
2022/03/25 03:03:55;;;;;;;26.50;7.87;;;;;;;-2.74;100.00;101243.96;1817373;78;21044;-85
2022/03/25 03:06:23;;;;;;;24.02;8.98;;;;;;;-2.72;100.00;101240.97;1816770;78;21886;-82
2022/03/25 03:08:50;;;;;;;19.40;9.68;;;;;;;-2.66;100.00;101245.17;1816410;78;22292;-83
2022/03/25 03:11:19;;;;;;;16.67;8.88;;;;;;;-2.63;100.00;101243.44;1816619;78;21053;-83
2022/03/25 03:13:46;;;;;;;16.62;7.55;;;;;;;-2.58;100.00;101244.67;1817266;78;21551;-83
2022/03/25 03:16:13;;;;;;;15.13;8.18;;;;;;;-2.55;100.00;101252.27;1817386;78;21665;-83
2022/03/25 03:18:41;;;;;;;17.25;9.60;;;;;;;-2.55;100.00;101250.99;1817724;78;21224;-82
2022/03/25 03:21:10;;;;;;;23.00;9.75;;;;;;;-2.55;100.00;101250.99;1817350;78;21042;-83
2022/03/25 03:23:37;;;;;;;20.60;10.90;;;;;;;-2.54;100.00;101257.37;1817164;78;21504;-82
2022/03/25 03:26:04;;;;;;;40.85;13.83;;;;;;;-2.50;100.00;101253.09;1819671;78;21051;-84
2022/03/25 03:28:34;;;;;;;23.50;11.95;;;;;;;-2.46;100.00;101256.00;1802180;79;21484;-83
2022/03/25 03:31:01;;;;;;;35.05;14.15;;;;;;;-2.40;100.00;101256.38;1802302;79;22335;-82
2022/03/25 03:33:29;;;;;;;28.52;12.05;;;;;;;-2.38;100.00;101259.31;1777842;79;20990;-81
2022/03/25 03:35:57;;;;;;;35.98;15.53;;;;;;;-2.37;100.00;101253.80;1802395;79;21054;-82
2022/03/25 03:38:24;;;;;;;31.77;14.83;;;;;;;-2.35;100.00;101253.33;1803026;79;21030;-81
2022/03/25 03:40:52;;;;;;;74.45;30.23;;;;;;;-2.34;100.00;101260.57;1802105;79;21575;-83
2022/03/25 03:43:20;;;;;;;82.88;33.70;;;;;;;-2.33;100.00;101256.72;1802267;79;21858;-82
2022/03/25 03:45:47;;;;;;;132.25;48.78;;;;;;;-2.33;100.00;101263.54;1802339;79;21038;-84
2022/03/25 03:48:14;;;;;;;137.88;52.15;;;;;;;-2.31;100.00;101268.17;1802429;79;21086;-82
2022/03/25 03:50:43;;;;;;;141.50;52.13;;;;;;;-2.32;100.00;101271.16;1802239;79;21035;-82
2022/03/25 03:53:11;;;;;;;144.53;56.15;;;;;;;-2.36;100.00;101270.77;1802594;79;21658;-84
2022/03/25 03:55:38;;;;;;;136.30;49.93;;;;;;;-2.40;100.00;101276.34;1802475;79;21270;-84
2022/03/25 03:58:07;;;;;;;116.82;45.35;;;;;;;-2.45;100.00;101285.75;1823219;77;21483;-84
2022/03/25 04:00:35;;;;;;;101.27;40.25;;;;;;;-2.50;100.00;101286.66;1798661;79;21073;-84
2022/03/25 04:03:06;;;;;;;86.97;34.88;;;;;;;-2.60;100.00;101280.36;1802259;79;21693;-83
2022/03/25 04:05:33;;;;;;;86.15;33.48;;;;;;;-2.66;100.00;101285.53;1802191;79;21950;-82
2022/03/25 04:08:01;;;;;;;78.33;32.48;;;;;;;-2.68;100.00;101283.42;1802264;79;21252;-82
2022/03/25 04:10:29;;;;;;;70.03;27.37;;;;;;;-2.65;100.00;101283.84;1802084;79;21539;-82
2022/03/25 04:12:57;;;;;;;53.48;24.18;;;;;;;-2.62;100.00;101287.20;1802750;79;21552;-83
2022/03/25 04:15:25;;;;;;;50.15;23.47;;;;;;;-2.57;100.00;101290.99;1802285;79;21007;-82
2022/03/25 04:17:53;;;;;;;56.63;25.50;;;;;;;-2.58;100.00;101285.03;1800229;79;21039;-82
2022/03/25 04:20:22;;;;;;;60.43;27.32;;;;;;;-2.60;100.00;101286.73;1823043;77;21506;-82
2022/03/25 04:22:51;;;;;;;65.20;26.33;;;;;;;-2.63;100.00;101287.20;1822863;77;21028;-83
2022/03/25 04:25:20;;;;;;;58.02;27.35;;;;;;;-2.66;100.00;101294.45;1822694;78;20981;-82
2022/03/25 04:27:57;;;;;;;67.90;32.48;;;;;;;-2.70;100.00;101284.72;1823017;78;21145;-83
2022/03/25 04:30:30;;;;;;;77.82;37.25;;;;;;;-2.72;100.00;101289.42;1802491;79;22633;-81
2022/03/25 04:32:59;;;;;;;88.92;42.10;;;;;;;-2.74;100.00;101295.81;1802109;79;21626;-81
2022/03/25 04:35:28;;;;;;;84.97;42.20;;;;;;;-2.77;100.00;101296.27;1802351;79;21046;-82
2022/03/25 04:37:57;;;;;;;107.72;51.70;;;;;;;-2.82;100.00;101300.14;1798103;79;20986;-82
2022/03/25 04:40:28;;;;;;;117.35;54.55;;;;;;;-2.86;100.00;101306.97;1788090;79;21073;-82
2022/03/25 04:42:59;;;;;;;108.97;55.38;;;;;;;-2.86;100.00;101303.55;1788460;79;21978;-83
2022/03/25 04:45:28;;;;;;;105.50;49.10;;;;;;;-2.87;100.00;101307.81;1783931;79;21334;-84
2022/03/25 04:47:56;;;;;;;92.35;45.08;;;;;;;-2.80;100.00;101318.79;1787853;78;21045;-82
2022/03/25 04:50:24;;;;;;;108.37;51.55;;;;;;;-2.72;100.00;101318.73;1816947;78;21563;-83
2022/03/25 04:52:57;;;;;;;111.75;52.75;;;;;;;-2.62;100.00;101322.05;1787955;79;21082;-81
2022/03/25 04:55:24;;;;;;;104.78;49.58;;;;;;;-2.54;100.00;101322.82;1810118;78;21070;-83
2022/03/25 04:57:52;;;;;;;103.70;51.98;;;;;;;-2.45;100.00;101321.91;1780531;79;21210;-82
2022/03/25 05:00:19;;;;;;;106.35;50.28;;;;;;;-2.37;100.00;101320.12;1805371;79;21041;-81
2022/03/25 05:02:48;;;;;;;110.78;50.00;;;;;;;-2.32;100.00;101320.91;1797132;79;21530;-82
2022/03/25 05:05:15;;;;;;;100.85;46.37;;;;;;;-2.27;100.00;101325.97;1795794;79;21352;-81
2022/03/25 05:07:46;;;;;;;98.60;45.67;;;;;;;-2.22;100.00;101319.11;1772899;80;21057;-81
2022/03/25 05:10:14;;;;;;;82.40;41.87;;;;;;;-2.14;100.00;101322.42;1791218;80;21193;-82
2022/03/25 05:12:45;;;;;;;74.35;38.35;;;;;;;-2.02;100.00;101330.38;1773707;80;21523;-81
2022/03/25 05:15:13;;;;;;;88.95;39.92;;;;;;;-1.86;100.00;101325.95;1799717;79;21095;-82
2022/03/25 05:17:46;;;;;;;85.38;38.50;;;;;;;-1.69;100.00;101326.17;1797065;79;21040;-81
2022/03/25 05:20:17;;;;;;;79.62;37.40;;;;;;;-1.54;100.00;101328.53;1735859;82;21076;-82
2022/03/25 05:22:48;;;;;;;83.67;39.53;;;;;;;-1.41;100.00;101339.43;1791045;80;20983;-81
2022/03/25 05:25:17;;;;;;;74.85;36.63;;;;;;;-1.28;100.00;101333.69;1703707;82;21163;-86
2022/03/25 05:27:49;;;;;;;75.00;36.23;;;;;;;-1.14;100.00;101340.75;1776959;80;21625;-85
2022/03/25 05:30:19;;;;;;;73.57;34.45;;;;;;;-1.00;100.00;101337.96;1728029;82;21053;-82
2022/03/25 05:32:47;;;;;;;64.17;31.12;;;;;;;-0.86;100.00;101335.64;1776152;80;21595;-80
2022/03/25 05:35:14;;;;;;;68.62;29.65;;;;;;;-0.72;100.00;101338.81;1728454;82;21911;-82
2022/03/25 05:37:42;;;;;;;57.58;28.80;;;;;;;-0.56;100.00;101339.39;1776711;80;21424;-82
2022/03/25 05:40:11;;;;;;;51.95;26.57;;;;;;;-0.40;100.00;101336.14;1727727;82;21561;-82
2022/03/25 05:42:39;;;;;;;49.75;24.50;;;;;;;-0.23;100.00;101338.84;1776854;80;21022;-82
2022/03/25 05:45:09;;;;;;;49.13;23.38;;;;;;;-0.07;100.00;101342.80;1728625;82;21002;-82
2022/03/25 05:47:39;;;;;;;54.23;26.45;;;;;;;0.08;100.00;101342.92;1777272;80;21827;-84
2022/03/25 05:50:10;;;;;;;59.90;30.02;;;;;;;0.25;100.00;101345.16;1728426;83;21658;-83
2022/03/25 05:52:40;;;;;;;51.55;24.80;;;;;;;0.41;100.00;101355.09;1777046;80;20995;-85
2022/03/25 05:55:10;;;;;;;105.92;27.42;;;;;;;0.52;100.00;101354.41;1728261;82;21018;-83
2022/03/25 05:57:41;;;;;;;55.12;25.05;;;;;;;0.63;100.00;101360.61;1790016;80;21112;-81
2022/03/25 06:00:11;;;;;;;41.05;22.58;;;;;;;0.72;100.00;101360.39;1791104;80;21293;-83
2022/03/25 06:02:45;;;;;;;43.20;22.55;;;;;;;0.86;100.00;101356.70;1789356;80;21084;-82
2022/03/25 06:05:13;;;;;;;57.20;22.82;;;;;;;0.98;100.00;101367.94;1784079;80;21833;-85
2022/03/25 06:07:43;;;;;;;38.88;20.35;;;;;;;1.09;100.00;101371.53;1736203;81;21059;-80
2022/03/25 06:10:13;;;;;;;39.50;22.25;;;;;;;1.21;97.91;101373.83;1791736;80;21500;-82
2022/03/25 06:12:42;;;;;;;39.20;19.73;;;;;;;1.32;98.25;101375.30;1790183;80;21076;-80
2022/03/25 06:15:11;;;;;;;40.95;20.40;;;;;;;1.44;100.00;101381.86;1791034;80;21021;-80
2022/03/25 06:17:50;;;;;;;44.20;20.65;;;;;;;1.58;100.00;101384.47;1784101;80;21048;-82
2022/03/25 06:20:23;;;;;;;44.98;23.75;;;;;;;1.76;100.00;101384.88;1784594;80;21046;-82
2022/03/25 06:22:50;;;;;;;49.53;21.23;;;;;;;1.94;100.00;101382.27;1798896;79;21013;-82
2022/03/25 06:25:23;;;;;;;39.03;21.48;;;;;;;2.09;100.00;101387.44;1812731;79;21086;-82
2022/03/25 06:27:57;;;;;;;35.33;20.05;;;;;;;2.24;94.82;101385.33;1786612;79;21544;-81
2022/03/25 06:30:31;;;;;;;105.90;24.32;;;;;;;2.35;92.78;101390.56;1803548;78;21058;-82
2022/03/25 06:32:59;;;;;;;39.05;21.10;;;;;;;2.82;100.00;101388.78;1790482;78;21103;-83
2022/03/25 06:35:28;;;;;;;44.18;21.42;;;;;;;3.48;100.00;101388.41;1795638;79;21060;-80
2022/03/25 06:37:56;;;;;;;42.67;23.98;;;;;;;3.53;100.00;101388.72;1796003;79;21154;-81
2022/03/25 06:40:24;;;;;;;37.63;20.40;;;;;;;3.67;100.00;101387.80;1795521;79;21458;-81
2022/03/25 06:42:57;;;;;;;40.65;20.72;;;;;;;3.77;100.00;101387.03;1786759;78;21074;-83
2022/03/25 06:45:26;;;;;;;37.75;19.17;;;;;;;3.80;100.00;101393.39;1789246;80;21016;-84
2022/03/25 06:47:54;;;;;;;33.73;19.00;;;;;;;3.85;100.00;101391.48;1786662;80;21047;-85
2022/03/25 06:50:24;;;;;;;31.10;18.15;;;;;;;3.91;87.44;101398.16;1789319;80;21174;-83
2022/03/25 06:52:53;;;;;;;34.63;18.62;;;;;;;4.01;100.00;101399.97;1786485;78;21045;-81
2022/03/25 06:55:23;;;;;;;103.95;23.57;;;;;;;4.13;88.46;101405.16;1769992;79;21168;-83
2022/03/25 06:57:52;;;;;;;178.93;25.92;;;;;;;4.22;93.89;101403.52;1779491;79;28179;-81
2022/03/25 07:00:24;;;;;;;41.20;20.77;;;;;;;4.34;97.64;101413.41;1800815;79;21108;-81
2022/03/25 07:02:53;;;;;;;51.13;21.07;;;;;;;4.53;89.78;101411.42;1801317;79;21144;-81
2022/03/25 07:05:24;;;;;;;120.35;24.45;;;;;;;4.62;86.89;101409.80;1786998;78;21083;-85
2022/03/25 07:07:52;;;;;;;47.57;26.23;;;;;;;4.70;90.14;101412.94;1775297;79;21051;-81
2022/03/25 07:10:33;;;;;;;33.02;18.92;;;;;;;4.86;91.00;101417.51;1797627;78;21032;-85
2022/03/25 07:13:06;;;;;;;49.18;25.37;;;;;;;4.98;76.79;101415.77;1799483;79;21614;-83
2022/03/25 07:15:34;;;;;;;47.98;21.48;;;;;;;5.02;72.54;101421.65;1755169;81;21240;-81
2022/03/25 07:18:07;;;;;;;87.65;22.85;;;;;;;5.13;83.96;101422.52;1789847;79;20987;-81
2022/03/25 07:20:35;;;;;;;39.75;19.92;;;;;;;5.31;100.00;101422.23;1800709;79;21050;-80
2022/03/25 07:23:05;;;;;;;37.03;20.68;;;;;;;5.49;83.22;101424.51;1808677;79;21065;-82
2022/03/25 07:25:34;;;;;;;76.65;20.08;;;;;;;5.58;86.34;101425.43;1793385;80;21037;-82
2022/03/25 07:28:04;;;;;;;32.05;18.32;;;;;;;5.73;96.16;101421.84;1778163;79;21797;-82
2022/03/25 07:30:32;;;;;;;55.78;20.20;;;;;;;5.96;100.00;101424.30;1793111;80;21967;-83
2022/03/25 07:33:01;;;;;;;51.63;23.85;;;;;;;6.11;89.06;101421.98;1755485;80;21955;-84
2022/03/25 07:35:29;;;;;;;34.58;17.32;;;;;;;6.23;76.93;101426.61;1806648;79;21396;-84
2022/03/25 07:37:58;;;;;;;30.32;14.15;;;;;;;6.28;76.09;101422.09;1790690;78;21477;-82
2022/03/25 07:40:26;;;;;;;53.50;15.90;;;;;;;6.38;70.18;101424.24;1793742;79;21434;-84
2022/03/25 07:42:54;;;;;;;33.65;13.72;;;;;;;6.45;77.67;101419.17;1778481;80;21066;-82
2022/03/25 07:45:22;;;;;;;53.70;22.55;;;;;;;6.61;88.25;101420.63;1778971;80;21006;-81
2022/03/25 07:47:52;;;;;;;35.63;14.18;;;;;;;6.73;75.15;101415.34;1775230;79;20981;-81
2022/03/25 07:50:23;;;;;;;31.15;14.53;;;;;;;6.80;78.36;101419.33;1788617;78;21029;-82
2022/03/25 07:52:53;;;;;;;29.80;12.07;;;;;;;6.97;100.00;101413.34;1785055;78;21315;-81
2022/03/25 07:55:23;;;;;;;21.55;12.35;;;;;;;7.16;80.58;101408.59;1787456;78;21041;-82
2022/03/25 07:57:53;;;;;;;27.95;13.13;;;;;;;7.29;71.29;101409.67;1818592;78;20990;-82
2022/03/25 08:00:20;;;;;;;22.45;12.85;;;;;;;7.37;68.50;101404.13;1817562;78;21538;-85
2022/03/25 08:02:53;;;;;;;27.17;13.10;;;;;;;7.46;65.98;101406.72;1780767;79;21061;-85
2022/03/25 08:05:23;;;;;;;21.45;11.65;;;;;;;7.52;64.92;101402.55;1804103;78;22443;-80
2022/03/25 08:07:57;;;;;;;23.55;12.80;;;;;;;7.62;65.67;101400.33;1776141;78;21077;-80
2022/03/25 08:10:29;;;;;;;18.67;9.93;;;;;;;7.74;62.54;101403.14;1779311;80;21046;-82
2022/03/25 08:13:01;;;;;;;19.98;9.78;;;;;;;7.88;59.80;101401.15;1784639;80;21068;-83
2022/03/25 08:15:32;;;;;;;;;;;;;;;8.00;62.65;101393.64;1782929;80;21590;-84
2022/03/25 08:18:16;;;;;;;31.60;9.38;;;;;;;8.14;64.32;101396.34;1784933;79;21274;-82
2022/03/25 08:20:44;;;;;;;17.35;9.38;;;;;;;8.38;71.78;101397.26;1784273;80;21062;-82
2022/03/25 08:28:36;;;;;;;13.10;8.23;;;;;;;8.85;60.44;101394.34;1799855;78;20943;-82
2022/03/25 08:31:03;;;;;;;14.68;7.62;;;;;;;8.99;57.98;101396.17;1795143;79;21712;-83
2022/03/25 08:33:31;;;;;;;26.52;6.92;;;;;;;9.14;59.26;101395.31;1814951;78;21121;-82
2022/03/25 08:35:58;;;;;;;16.57;5.83;;;;;;;9.28;58.49;101391.94;1815440;78;21093;-81
2022/03/25 08:38:26;;;;;;;36.42;7.03;;;;;;;9.42;60.38;101397.61;1795694;79;21081;-81
2022/03/25 08:40:54;;;;;;;26.65;6.75;;;;;;;9.46;53.43;101395.67;1799203;79;21696;-87
2022/03/25 08:43:22;;;;;;;19.42;6.90;;;;;;;9.44;54.16;101391.05;1815302;79;21944;-85
2022/03/25 08:45:49;;;;;;;14.03;5.65;;;;;;;9.49;55.85;101392.08;1775935;79;21493;-82
2022/03/25 08:48:16;;;;;;;20.23;6.33;;;;;;;9.51;49.65;101389.77;1787334;79;21015;-89
2022/03/25 08:50:45;;;;;;;51.50;7.33;;;;;;;9.47;48.74;101392.15;1782092;79;21019;-84
2022/03/25 08:53:13;;;;;;;25.75;4.45;;;;;;;9.51;54.59;101391.51;1737538;80;21270;-82
2022/03/25 08:55:42;;;;;;;52.15;6.42;;;;;;;9.64;51.36;101385.98;1782443;79;21207;-83
2022/03/25 08:58:09;;;;;;;66.35;7.00;;;;;;;9.79;57.95;101382.47;1761244;79;21685;-82
2022/03/25 09:00:37;;;;;;;14.23;4.62;;;;;;;9.98;58.94;101380.52;1801341;79;21502;-82
2022/03/25 09:03:05;;;;;;;15.70;5.45;;;;;;;10.16;59.01;101379.86;1798780;78;21348;-83
2022/03/25 09:05:32;;;;;;;63.95;7.20;;;;;;;10.26;49.47;101380.50;1786827;79;21133;-81
2022/03/25 09:08:02;;;;;;;20.02;5.78;;;;;;;10.38;56.39;101379.41;1798391;79;21153;-82
2022/03/25 09:10:31;;;;;;;10.80;4.85;;;;;;;10.48;47.60;101383.13;1768930;79;21049;-82
2022/03/25 09:12:58;;;;;;;14.98;5.12;;;;;;;10.52;48.10;101377.25;1780420;80;21557;-81
2022/03/25 09:15:26;;;;;;;13.90;4.90;;;;;;;10.52;52.24;101370.75;1776915;80;21053;-81
2022/03/25 09:17:56;;;;;;;17.25;7.25;;;;;;;10.57;51.65;101375.19;1780871;78;21666;-80
2022/03/25 09:20:25;;;;;;;14.38;6.55;;;;;;;10.55;41.72;101371.39;1800073;79;21520;-81
2022/03/25 09:22:54;;;;;;;12.33;5.60;;;;;;;10.51;42.90;101371.67;1788592;80;21105;-83
2022/03/25 09:25:26;;;;;;;11.55;4.45;;;;;;;10.53;43.03;101375.84;1787341;80;21092;-84
2022/03/25 09:27:53;;;;;;;10.55;5.12;;;;;;;10.61;46.52;101375.83;1797835;79;21519;-81
2022/03/25 09:30:20;;;;;;;7.55;4.37;;;;;;;10.62;41.32;101375.72;1780272;80;21102;-80
2022/03/25 09:32:47;;;;;;;12.68;5.10;;;;;;;10.63;42.23;101381.30;1754244;80;21542;-81
2022/03/25 09:35:30;;;;;;;13.35;5.35;;;;;;;10.68;44.09;101378.41;1783581;79;21080;-82
2022/03/25 09:38:09;;;;;;;14.73;4.95;;;;;;;10.70;45.39;101378.68;1796127;79;21042;-85
2022/03/25 09:40:43;;;;;;;9.80;4.80;;;;;;;10.82;47.42;101378.84;1800119;79;20999;-81
2022/03/25 09:43:11;;;;;;;15.40;6.37;;;;;;;10.94;43.37;101372.00;1813718;79;21061;-81
2022/03/25 09:45:40;;;;;;;20.17;5.90;;;;;;;11.05;41.18;101381.28;1813823;79;21826;-83
2022/03/25 09:48:08;;;;;;;12.43;5.12;;;;;;;11.10;40.20;101378.34;1813436;79;21589;-84
2022/03/25 09:50:40;;;;;;;13.00;5.15;;;;;;;11.11;39.30;101380.88;1797167;79;21018;-81
2022/03/25 09:53:08;;;;;;;11.18;4.65;;;;;;;11.05;41.75;101383.41;1804638;78;20986;-83
2022/03/25 09:55:41;;;;;;;9.23;5.53;;;;;;;11.07;43.68;101379.87;1768866;80;21030;-82
2022/03/25 09:58:19;;;;;;;8.80;5.12;;;;;;;11.15;41.19;101384.94;1780025;80;22006;-83
2022/03/25 10:00:52;;;;;;;9.60;5.03;;;;;;;11.28;41.69;101378.94;1747869;81;21006;-82
2022/03/25 10:03:27;;;;;;;10.15;5.00;;;;;;;11.39;43.26;101378.22;1796715;79;21013;-81
2022/03/25 10:05:58;;;;;;;10.25;5.12;;;;;;;11.48;45.64;101377.13;1795686;79;21911;-81
2022/03/25 10:08:31;;;;;;;69.30;7.80;;;;;;;11.56;43.79;101374.02;1797586;79;21072;-83
2022/03/25 10:11:25;;;;;;;16.85;6.25;;;;;;;11.63;50.43;101368.75;1799774;79;21254;-81
2022/03/25 10:14:14;;;;;;;22.70;6.83;;;;;;;11.75;43.42;101368.39;1800150;79;21026;-82
2022/03/25 10:16:49;;;;;;;20.82;7.60;;;;;;;11.85;43.66;101375.11;1800253;79;21054;-81
2022/03/25 10:19:25;;;;;;;12.30;6.12;;;;;;;11.95;39.05;101371.39;1761679;80;21049;-82
2022/03/25 10:22:03;;;;;;;11.88;6.65;;;;;;;11.92;38.29;101368.52;1761143;81;21060;-80
2022/03/25 10:24:52;;;;;;;14.18;6.58;;;;;;;11.89;36.82;101362.68;1711944;81;21049;-86
2022/03/25 10:27:24;;;;;;;7.97;6.00;;;;;;;11.86;37.26;101362.91;1750967;80;21597;-81
2022/03/25 10:29:55;;;;;;;11.40;6.40;;;;;;;11.83;36.35;101356.95;1751149;80;21014;-80
2022/03/25 10:32:26;;;;;;;15.65;7.28;;;;;;;11.81;37.67;101351.00;1741747;81;21023;-80
2022/03/25 10:35:11;;;;;;;15.30;7.42;;;;;;;11.85;35.95;101350.31;1762231;81;21108;-80
2022/03/25 10:37:56;;;;;;;16.95;6.42;;;;;;;11.86;36.81;101350.69;1741653;81;21036;-80
2022/03/25 10:51:58;;;;;;;11.63;6.78;;;;;;;12.46;35.69;101336.52;1804355;78;22004;-88
2022/03/25 10:54:29;;;;;;;11.40;6.15;;;;;;;12.51;37.95;101336.20;1786558;78;21024;-78
2022/03/25 10:57:00;;;;;;;15.65;5.78;;;;;;;12.61;38.48;101330.22;1791061;79;21145;-79
2022/03/25 10:59:34;;;;;;;17.37;7.70;;;;;;;12.74;42.03;101328.83;1793067;79;21058;-78
2022/03/25 11:02:06;;;;;;;17.15;6.60;;;;;;;12.86;38.16;101327.09;1792200;79;20976;-79
2022/03/25 11:04:35;;;;;;;15.78;7.67;;;;;;;12.98;38.09;101320.12;1776711;80;21128;-79
2022/03/25 11:07:04;;;;;;;31.80;8.20;;;;;;;13.01;39.07;101321.70;1755055;81;21759;-81
2022/03/25 11:09:33;;;;;;;15.08;6.75;;;;;;;13.00;39.56;101320.86;1767745;80;21618;-80
2022/03/25 11:12:01;;;;;;;11.40;7.05;;;;;;;13.02;34.99;101320.28;1769842;80;21078;-85
2022/03/25 11:14:32;;;;;;;16.67;6.47;;;;;;;12.85;33.56;101318.92;1775557;80;21551;-81
2022/03/25 11:17:01;;;;;;;20.87;6.27;;;;;;;12.66;33.68;101321.20;1761455;80;21069;-83
2022/03/25 11:19:30;;;;;;;13.20;6.87;;;;;;;12.48;34.46;101316.36;1788799;79;21279;-83
2022/03/25 11:21:59;;;;;;;12.30;7.22;;;;;;;12.40;33.59;101312.16;1760132;80;21059;-79
2022/03/25 11:24:40;;;;;;;30.75;7.75;;;;;;;12.46;32.78;101319.55;1778435;78;21452;-84
2022/03/25 11:27:15;;;;;;;19.32;6.37;;;;;;;12.49;35.59;101314.11;1763151;80;21041;-79
2022/03/25 11:29:47;;;;;;;19.48;7.25;;;;;;;12.59;34.52;101309.05;1771807;80;21009;-87
2022/03/25 11:32:16;;;;;;;13.05;7.67;;;;;;;12.68;34.16;101313.61;1762637;80;21066;-79
2022/03/25 11:35:00;;;;;;;31.35;6.45;;;;;;;12.73;35.20;101308.90;1763353;79;21191;-80
2022/03/25 11:37:33;;;;;;;22.87;7.72;;;;;;;12.79;36.22;101303.67;1755986;81;21088;-80
2022/03/25 11:40:26;;;;;;;9.30;5.75;;;;;;;12.84;33.30;101308.56;1780126;80;21027;-81
2022/03/25 11:42:58;;;;;;;31.33;7.85;;;;;;;12.80;34.33;101300.11;1780333;79;21018;-80